Time;durP1;ratioP1;P1;durP2;ratioP2;P2;SDS_P1;SDS_P2;PMS_P1;PMS_P2;Temp;Humidity;BMP_temperature;BMP_pressure;BME280_temperature;BME280_humidity;BME280_pressure;Samples;Min_cycle;Max_cycle;Signal;HPM_P1;HPM_P2
2024/02/28 00:00:48;;;;;;;26.40;17.25;;;4.90;99.90;;;;;;5066166;28;20295;-72
2024/02/28 00:03:16;;;;;;;36.72;20.40;;;4.80;99.90;;;;;;5063012;28;20219;-72
2024/02/28 00:05:43;;;;;;;31.20;20.13;;;4.70;99.90;;;;;;5064115;28;20738;-72
2024/02/28 00:08:10;;;;;;;31.65;17.77;;;4.70;99.90;;;;;;5059189;28;20212;-73
2024/02/28 00:10:39;;;;;;;34.75;20.63;;;4.80;99.90;;;;;;5063390;28;20634;-73
2024/02/28 00:13:07;;;;;;;29.30;19.20;;;4.90;99.90;;;;;;5054641;28;20228;-73
2024/02/28 00:15:35;;;;;;;30.85;20.02;;;4.90;99.90;;;;;;5060569;28;20241;-75
2024/02/28 00:18:03;;;;;;;32.90;21.60;;;5.00;99.90;;;;;;5052785;28;20208;-72
2024/02/28 00:20:30;;;;;;;33.67;19.02;;;5.10;99.90;;;;;;5057743;28;20199;-72
2024/02/28 00:22:57;;;;;;;31.02;20.00;;;5.10;99.90;;;;;;5053881;28;20228;-73
2024/02/28 00:25:24;;;;;;;30.00;19.80;;;5.10;99.90;;;;;;5062317;28;20204;-70
2024/02/28 00:27:52;;;;;;;33.35;18.80;;;5.10;99.90;;;;;;5073682;28;20196;-72
2024/02/28 00:30:19;;;;;;;33.15;19.45;;;5.20;99.90;;;;;;5073830;28;20205;-74
2024/02/28 00:32:46;;;;;;;32.80;20.27;;;5.20;99.90;;;;;;5061820;28;20265;-76
2024/02/28 00:35:14;;;;;;;31.27;20.88;;;5.30;99.90;;;;;;5070979;28;20261;-73
2024/02/28 00:37:41;;;;;;;31.98;20.23;;;5.30;99.90;;;;;;5068184;28;20230;-74
2024/02/28 00:40:10;;;;;;;32.53;20.70;;;5.20;99.90;;;;;;5066738;28;20203;-72
2024/02/28 00:42:37;;;;;;;38.95;20.77;;;5.20;99.90;;;;;;5064666;28;20708;-73
2024/02/28 00:45:06;;;;;;;32.50;18.77;;;5.10;99.90;;;;;;5074177;28;20210;-73
2024/02/28 00:47:33;;;;;;;34.00;20.20;;;5.10;99.90;;;;;;5059688;28;20207;-74
2024/02/28 00:50:02;;;;;;;31.70;18.63;;;5.00;99.90;;;;;;5064514;28;20262;-73
2024/02/28 00:52:31;;;;;;;32.85;20.05;;;4.90;99.90;;;;;;5056174;28;20291;-71
2024/02/28 00:54:59;;;;;;;36.63;21.88;;;4.80;99.90;;;;;;5066124;28;20674;-76
2024/02/28 00:57:26;;;;;;;32.97;20.80;;;4.70;99.90;;;;;;5069304;28;20230;-73
2024/02/28 00:59:54;;;;;;;31.20;20.73;;;4.80;99.90;;;;;;5066179;28;20250;-74
2024/02/28 01:02:22;;;;;;;34.28;19.23;;;4.80;99.90;;;;;;5068569;28;20581;-73
2024/02/28 01:04:49;;;;;;;34.10;19.88;;;4.80;99.90;;;;;;5071911;28;20272;-73
2024/02/28 01:07:16;;;;;;;33.63;21.08;;;4.80;99.90;;;;;;5069898;28;20241;-74
2024/02/28 01:09:43;;;;;;;34.17;19.75;;;4.70;99.90;;;;;;5058229;28;20204;-73
2024/02/28 01:12:10;;;;;;;35.78;20.38;;;4.70;99.90;;;;;;5071422;28;20203;-74
2024/02/28 01:14:37;;;;;;;34.95;19.33;;;4.60;99.90;;;;;;5072715;28;20265;-71
2024/02/28 01:17:04;;;;;;;36.80;20.90;;;4.60;99.90;;;;;;5065790;28;20223;-72
2024/02/28 01:19:33;;;;;;;38.88;22.80;;;4.60;99.90;;;;;;5077453;28;20226;-73
2024/02/28 01:22:00;;;;;;;34.78;22.60;;;4.50;99.90;;;;;;5062958;28;20208;-72
2024/02/28 01:24:27;;;;;;;38.15;22.70;;;4.50;99.90;;;;;;5060788;28;21001;-70
2024/02/28 01:26:54;;;;;;;33.25;20.02;;;4.50;99.90;;;;;;5066421;28;20246;-72
2024/02/28 01:29:22;;;;;;;35.85;21.40;;;4.40;99.90;;;;;;5073343;28;20256;-71
2024/02/28 01:31:49;;;;;;;35.92;21.67;;;4.30;99.90;;;;;;5083403;28;20199;-75
2024/02/28 01:34:16;;;;;;;43.75;24.35;;;4.20;99.90;;;;;;5071908;28;20227;-75
2024/02/28 01:36:44;;;;;;;41.53;25.63;;;4.10;99.90;;;;;;5085316;28;20224;-71
2024/02/28 01:39:12;;;;;;;43.78;24.80;;;4.00;99.90;;;;;;5071883;28;20203;-72
2024/02/28 01:41:39;;;;;;;38.95;23.67;;;3.90;99.90;;;;;;5067640;28;20195;-74
2024/02/28 01:44:06;;;;;;;44.05;24.23;;;3.90;99.90;;;;;;5062631;28;20578;-75
2024/02/28 01:46:33;;;;;;;43.78;25.02;;;3.80;99.90;;;;;;5066066;28;20196;-73
2024/02/28 01:49:00;;;;;;;47.95;25.67;;;3.70;99.90;;;;;;5063055;28;20204;-70
2024/02/28 01:51:28;;;;;;;47.72;26.30;;;3.70;99.90;;;;;;5056398;28;20196;-73
2024/02/28 01:53:58;;;;;;;46.28;26.27;;;3.60;99.90;;;;;;5058329;28;20242;-70
2024/02/28 01:56:26;;;;;;;44.78;24.67;;;3.60;99.90;;;;;;5071141;28;20219;-75
2024/02/28 01:58:55;;;;;;;41.05;24.35;;;3.60;99.90;;;;;;5056907;28;20732;-72
2024/02/28 02:01:22;;;;;;;46.83;25.00;;;3.60;99.90;;;;;;5070616;28;20199;-72
2024/02/28 02:03:49;;;;;;;42.13;23.83;;;3.60;99.90;;;;;;5059734;28;20224;-73
2024/02/28 02:06:16;;;;;;;44.20;24.75;;;3.60;99.90;;;;;;5064112;28;22395;-73
2024/02/28 02:08:43;;;;;;;43.50;24.75;;;3.60;99.90;;;;;;5068832;28;20215;-72
2024/02/28 02:11:13;;;;;;;48.20;24.73;;;3.60;99.90;;;;;;5063138;28;20291;-72
2024/02/28 02:13:49;;;;;;;45.53;26.70;;;3.60;99.90;;;;;;5069909;28;20753;-71
2024/02/28 02:16:16;;;;;;;49.38;27.23;;;3.60;99.90;;;;;;5053853;28;20211;-76
2024/02/28 02:18:44;;;;;;;55.80;31.23;;;3.60;99.90;;;;;;5064787;28;20204;-74
2024/02/28 02:21:13;;;;;;;47.10;28.50;;;3.60;99.90;;;;;;5062710;28;20208;-74
2024/02/28 02:23:42;;;;;;;47.83;25.10;;;3.60;99.90;;;;;;5056293;28;20224;-72
2024/02/28 02:26:10;;;;;;;42.90;26.00;;;3.60;99.90;;;;;;5057842;28;20298;-75
2024/02/28 02:28:37;;;;;;;47.92;29.08;;;3.50;99.90;;;;;;5064999;28;20297;-72
2024/02/28 02:31:04;;;;;;;45.78;26.27;;;3.50;99.90;;;;;;5068647;28;20207;-74
2024/02/28 02:33:31;;;;;;;51.45;27.08;;;3.50;99.90;;;;;;5066500;28;20293;-74
2024/02/28 02:35:58;;;;;;;42.78;23.88;;;3.50;99.90;;;;;;5063628;28;20277;-73
2024/02/28 02:38:25;;;;;;;47.63;27.17;;;3.50;99.90;;;;;;5063608;28;20211;-75
2024/02/28 02:40:53;;;;;;;46.88;26.50;;;3.50;99.90;;;;;;5060324;28;20204;-72
2024/02/28 02:43:20;;;;;;;47.35;25.20;;;3.60;99.90;;;;;;5053794;28;20216;-74
2024/02/28 02:45:47;;;;;;;48.35;27.30;;;3.60;99.90;;;;;;5061160;28;21245;-74
2024/02/28 02:48:14;;;;;;;48.83;27.58;;;3.60;99.90;;;;;;5057957;28;20569;-76
2024/02/28 02:50:41;;;;;;;49.22;25.88;;;3.70;99.90;;;;;;5059787;28;20199;-76
2024/02/28 02:53:11;;;;;;;45.75;26.42;;;3.70;99.90;;;;;;5064109;28;20231;-74
2024/02/28 02:55:38;;;;;;;44.72;25.40;;;3.90;99.90;;;;;;5066766;28;20328;-71
2024/02/28 02:58:07;;;;;;;45.55;26.77;;;3.90;99.90;;;;;;5054791;28;20641;-73
2024/02/28 03:00:33;;;;;;;46.97;27.77;;;3.90;99.90;;;;;;5064382;28;20208;-74
2024/02/28 03:03:01;;;;;;;52.05;27.60;;;4.00;99.90;;;;;;5062518;28;20590;-73
2024/02/28 03:05:28;;;;;;;45.65;28.00;;;3.90;99.90;;;;;;5073412;28;20272;-73
2024/02/28 03:07:55;;;;;;;44.35;25.15;;;3.90;99.90;;;;;;5053445;28;20192;-74
2024/02/28 03:10:22;;;;;;;44.72;25.63;;;4.00;99.90;;;;;;5061400;28;20222;-71
2024/02/28 03:12:50;;;;;;;46.65;26.45;;;4.00;99.90;;;;;;5061920;28;20300;-72
2024/02/28 03:15:19;;;;;;;52.72;29.02;;;4.00;99.90;;;;;;5064521;28;20257;-73
2024/02/28 03:17:46;;;;;;;52.33;29.27;;;4.00;99.90;;;;;;5071829;28;20219;-72
2024/02/28 03:20:14;;;;;;;45.75;29.27;;;4.00;99.90;;;;;;5056847;28;20219;-74
2024/02/28 03:22:41;;;;;;;44.80;27.42;;;4.00;99.90;;;;;;5064336;28;20310;-73
2024/02/28 03:25:10;;;;;;;52.35;29.55;;;4.00;99.90;;;;;;5057415;28;20227;-73
2024/02/28 03:27:37;;;;;;;48.60;26.70;;;4.00;99.90;;;;;;5066452;28;20199;-73
2024/02/28 03:30:05;;;;;;;48.00;27.85;;;4.10;99.90;;;;;;5055973;28;20211;-72
2024/02/28 03:32:33;;;;;;;35.58;23.25;;;4.10;99.90;;;;;;5067729;28;20200;-73
2024/02/28 03:35:00;;;;;;;51.55;28.33;;;4.10;99.90;;;;;;5064050;28;20228;-73
2024/02/28 03:37:27;;;;;;;50.33;28.90;;;4.00;99.90;;;;;;5052928;28;20259;-74
2024/02/28 03:39:54;;;;;;;42.58;25.15;;;4.10;99.90;;;;;;5054656;28;20200;-70
2024/02/28 03:42:21;;;;;;;47.42;28.38;;;4.00;99.90;;;;;;5056968;28;20242;-74
2024/02/28 03:44:48;;;;;;;43.13;26.27;;;4.10;99.90;;;;;;5061838;28;20196;-75
2024/02/28 03:47:15;;;;;;;49.33;28.75;;;4.20;99.90;;;;;;5069216;28;20200;-73
2024/02/28 03:49:44;;;;;;;47.63;26.02;;;4.10;99.90;;;;;;5063159;28;20200;-73
2024/02/28 03:52:11;;;;;;;46.00;29.20;;;4.20;99.90;;;;;;5060383;28;20584;-74
2024/02/28 03:54:38;;;;;;;49.22;27.20;;;4.20;99.90;;;;;;5067749;28;20223;-70
2024/02/28 03:57:05;;;;;;;47.55;29.00;;;4.20;99.90;;;;;;5062119;28;20277;-73
2024/02/28 03:59:32;;;;;;;46.53;26.65;;;4.10;99.90;;;;;;5063849;28;20203;-72
2024/02/28 04:01:59;;;;;;;47.92;27.85;;;4.10;99.90;;;;;;5071266;28;20211;-74
2024/02/28 04:04:26;;;;;;;53.55;28.27;;;4.00;99.90;;;;;;5068999;28;20264;-75
2024/02/28 04:06:55;;;;;;;55.60;32.60;;;4.10;99.90;;;;;;5067557;28;20199;-73
2024/02/28 04:09:22;;;;;;;45.03;28.17;;;4.10;99.90;;;;;;5074415;28;20212;-72
2024/02/28 04:11:49;;;;;;;53.65;31.13;;;4.10;99.90;;;;;;5081833;28;20204;-74
2024/02/28 04:14:16;;;;;;;47.55;27.65;;;4.10;99.90;;;;;;5077257;28;20733;-73
2024/02/28 04:16:44;;;;;;;51.67;26.40;;;4.10;99.90;;;;;;5095322;28;20215;-72
2024/02/28 04:19:11;;;;;;;51.85;30.38;;;4.20;99.90;;;;;;5074882;28;20207;-73
2024/02/28 04:21:38;;;;;;;43.47;25.27;;;4.00;99.90;;;;;;5063703;28;20285;-70
2024/02/28 04:24:09;;;;;;;50.28;27.50;;;4.00;99.90;;;;;;5062715;28;20224;-73
2024/02/28 04:26:36;;;;;;;51.30;27.73;;;3.90;99.90;;;;;;5068118;28;20250;-73
2024/02/28 04:29:05;;;;;;;53.90;31.05;;;3.80;99.90;;;;;;5064777;28;20242;-72
2024/02/28 04:31:32;;;;;;;53.80;28.10;;;3.80;99.90;;;;;;5062684;28;20204;-74
2024/02/28 04:33:59;;;;;;;48.20;26.75;;;3.70;99.90;;;;;;5068718;28;20277;-71
2024/02/28 04:36:26;;;;;;;51.67;26.65;;;3.70;99.90;;;;;;5069306;28;20200;-71
2024/02/28 04:38:53;;;;;;;54.65;28.75;;;3.60;99.90;;;;;;5062577;28;20247;-74
2024/02/28 04:41:21;;;;;;;48.35;27.05;;;3.50;99.90;;;;;;5071267;28;20245;-70
2024/02/28 04:43:48;;;;;;;47.45;26.33;;;3.40;99.90;;;;;;5065190;28;20702;-71
2024/02/28 04:46:15;;;;;;;51.70;28.20;;;3.30;99.90;;;;;;5066104;28;20662;-71
2024/02/28 04:48:42;;;;;;;47.55;28.25;;;3.30;99.90;;;;;;5061135;28;20192;-73
2024/02/28 04:51:09;;;;;;;48.33;26.52;;;3.40;99.90;;;;;;5068003;28;20281;-76
2024/02/28 04:53:36;;;;;;;49.42;28.25;;;3.30;99.90;;;;;;5070157;28;20634;-74
2024/02/28 04:56:03;;;;;;;52.38;28.52;;;3.30;99.90;;;;;;5072146;28;20731;-73
2024/02/28 04:58:31;;;;;;;49.17;27.50;;;3.30;99.90;;;;;;5063495;28;20633;-72
2024/02/28 05:00:58;;;;;;;53.35;28.33;;;3.30;99.90;;;;;;5064622;28;20252;-75
2024/02/28 05:03:25;;;;;;;60.75;31.23;;;3.20;99.90;;;;;;5066679;28;20272;-73
2024/02/28 05:05:52;;;;;;;56.42;29.75;;;3.00;99.90;;;;;;5069235;28;20621;-73
2024/02/28 05:08:21;;;;;;;63.75;31.38;;;3.00;99.90;;;;;;5066237;28;20196;-74
2024/02/28 05:10:48;;;;;;;68.53;34.42;;;2.90;99.90;;;;;;5064758;28;20659;-74
2024/02/28 05:13:15;;;;;;;65.43;31.67;;;2.80;99.90;;;;;;5064831;28;20585;-71
2024/02/28 05:15:43;;;;;;;65.25;31.17;;;2.80;99.90;;;;;;5067549;28;20216;-71
2024/02/28 05:18:10;;;;;;;63.10;31.48;;;2.80;99.90;;;;;;5067204;28;20224;-73
2024/02/28 05:20:37;;;;;;;90.53;35.17;;;2.70;99.90;;;;;;5062133;28;20256;-72
2024/02/28 05:23:04;;;;;;;65.55;29.42;;;2.70;99.90;;;;;;5062146;28;20219;-75
2024/02/28 05:25:31;;;;;;;68.78;33.80;;;2.70;99.90;;;;;;5064435;28;20252;-73
2024/02/28 05:27:58;;;;;;;70.07;34.25;;;2.70;99.90;;;;;;5069379;28;20199;-73
2024/02/28 05:30:25;;;;;;;101.53;40.60;;;2.70;99.90;;;;;;5062559;28;20207;-73
2024/02/28 05:32:54;;;;;;;80.40;39.40;;;2.70;99.90;;;;;;5063268;28;20685;-71
2024/02/28 05:35:21;;;;;;;105.53;45.13;;;2.70;99.90;;;;;;5068918;28;20204;-74
2024/02/28 05:37:48;;;;;;;113.10;38.97;;;2.60;99.90;;;;;;5061170;28;20307;-72
2024/02/28 05:40:15;;;;;;;127.45;43.85;;;2.60;99.90;;;;;;5066004;28;20253;-73
2024/02/28 05:42:42;;;;;;;128.27;47.13;;;2.60;99.90;;;;;;5064252;28;20587;-72
2024/02/28 05:45:10;;;;;;;143.90;47.30;;;2.60;99.90;;;;;;5068070;28;20206;-73
2024/02/28 05:47:37;;;;;;;130.35;45.60;;;2.70;99.90;;;;;;5065440;28;20202;-73
2024/02/28 05:50:07;;;;;;;158.00;56.25;;;2.80;99.90;;;;;;5073538;28;20302;-73
2024/02/28 05:52:35;;;;;;;157.13;52.78;;;2.90;99.90;;;;;;5078906;28;20206;-73
2024/02/28 05:55:02;;;;;;;192.00;56.97;;;2.90;99.90;;;;;;5069433;28;20207;-73
2024/02/28 05:57:29;;;;;;;191.77;52.65;;;2.80;99.90;;;;;;5064785;28;20192;-75
2024/02/28 05:59:56;;;;;;;164.70;51.67;;;2.80;99.90;;;;;;5074049;28;20658;-72
2024/02/28 06:02:23;;;;;;;147.63;52.42;;;2.70;99.90;;;;;;5065190;28;20576;-73
2024/02/28 06:04:50;;;;;;;185.23;55.35;;;2.70;99.90;;;;;;5067664;28;20602;-73
2024/02/28 06:07:18;;;;;;;141.05;49.40;;;2.70;99.90;;;;;;5067349;28;20284;-74
2024/02/28 06:09:45;;;;;;;173.80;53.70;;;2.70;99.90;;;;;;5054347;28;20243;-73
2024/02/28 06:12:12;;;;;;;154.43;55.53;;;2.80;99.90;;;;;;5057065;28;20203;-73
2024/02/28 06:14:39;;;;;;;159.15;51.42;;;2.70;99.90;;;;;;5059252;28;20223;-73
2024/02/28 06:17:06;;;;;;;187.65;54.88;;;2.80;99.90;;;;;;5064666;28;20204;-74
2024/02/28 06:19:33;;;;;;;111.85;45.80;;;2.70;99.90;;;;;;5058459;28;20293;-73
2024/02/28 06:22:00;;;;;;;115.38;43.33;;;2.80;99.90;;;;;;5059799;28;20196;-70
2024/02/28 06:24:29;;;;;;;117.97;47.63;;;3.00;99.90;;;;;;5054368;28;20270;-71
2024/02/28 06:26:56;;;;;;;101.80;42.28;;;2.90;99.90;;;;;;5064981;28;20207;-76
2024/02/28 06:29:23;;;;;;;140.35;48.00;;;2.90;99.90;;;;;;5062791;28;20293;-74
2024/02/28 06:31:51;;;;;;;126.72;45.38;;;2.90;99.90;;;;;;5068398;28;20207;-76
2024/02/28 06:34:18;;;;;;;123.32;47.40;;;2.90;99.90;;;;;;5062984;28;20254;-75
2024/02/28 06:36:45;;;;;;;112.57;45.53;;;3.00;99.90;;;;;;5059835;28;20234;-75
2024/02/28 06:39:12;;;;;;;104.63;45.92;;;3.00;99.90;;;;;;5063379;28;20586;-76
2024/02/28 06:41:41;;;;;;;107.82;44.63;;;3.10;99.90;;;;;;5071255;28;20266;-75
2024/02/28 06:44:08;;;;;;;101.53;42.78;;;3.20;99.90;;;;;;5071245;28;20576;-72
2024/02/28 06:46:35;;;;;;;106.35;40.92;;;3.20;99.90;;;;;;5070582;28;20243;-74
2024/02/28 06:49:02;;;;;;;122.63;43.72;;;3.20;99.90;;;;;;5076388;28;20643;-74
2024/02/28 06:51:30;;;;;;;103.90;42.05;;;3.10;99.90;;;;;;5072405;28;20211;-73
2024/02/28 06:53:57;;;;;;;116.65;41.38;;;3.10;99.90;;;;;;5081634;28;20223;-72
2024/02/28 06:56:24;;;;;;;84.95;37.80;;;3.10;99.90;;;;;;5079387;28;20212;-73
2024/02/28 06:58:52;;;;;;;91.03;37.55;;;3.10;99.90;;;;;;5079845;28;20223;-73
2024/02/28 07:01:19;;;;;;;95.72;40.45;;;3.00;99.90;;;;;;5063980;28;20238;-77
2024/02/28 07:03:46;;;;;;;84.25;37.25;;;3.00;99.90;;;;;;5065142;28;20565;-74
2024/02/28 07:06:13;;;;;;;95.75;39.38;;;3.10;99.90;;;;;;5067783;28;20235;-71
2024/02/28 07:08:40;;;;;;;88.18;38.08;;;3.20;99.90;;;;;;5058841;28;20191;-76
2024/02/28 07:11:14;;;;;;;67.72;31.80;;;3.30;99.90;;;;;;5065836;28;20229;-76
2024/02/28 07:13:41;;;;;;;75.05;32.30;;;3.40;99.90;;;;;;5068739;28;20223;-75
2024/02/28 07:16:10;;;;;;;82.97;36.75;;;3.30;99.90;;;;;;5069855;28;20245;-71
2024/02/28 07:18:37;;;;;;;87.75;35.97;;;3.30;99.90;;;;;;5064226;28;20635;-73
2024/02/28 07:21:07;;;;;;;79.32;37.22;;;3.10;99.90;;;;;;5069171;28;20294;-74
2024/02/28 07:23:34;;;;;;;70.70;33.70;;;3.20;99.90;;;;;;5067563;28;20263;-75
2024/02/28 07:26:01;;;;;;;66.47;33.97;;;3.30;99.90;;;;;;5069025;28;20631;-75
2024/02/28 07:28:28;;;;;;;69.47;30.30;;;3.30;99.90;;;;;;5064034;28;20203;-77
2024/02/28 07:30:55;;;;;;;57.40;29.00;;;3.30;99.90;;;;;;5061120;28;20203;-74
2024/02/28 07:33:24;;;;;;;52.60;24.83;;;3.30;99.90;;;;;;5061014;28;20281;-74
2024/02/28 07:35:53;;;;;;;52.58;28.42;;;3.30;99.90;;;;;;5060857;28;20670;-76
2024/02/28 07:38:21;;;;;;;57.58;32.28;;;3.40;99.90;;;;;;5062471;28;20223;-73
2024/02/28 07:40:49;;;;;;;55.83;26.80;;;3.50;99.90;;;;;;5055897;28;20579;-76
2024/02/28 07:43:16;;;;;;;54.67;27.40;;;3.60;99.90;;;;;;5064847;28;20649;-75
2024/02/28 07:45:43;;;;;;;57.10;27.55;;;3.50;99.90;;;;;;5068054;28;20514;-74
2024/02/28 07:48:10;;;;;;;49.28;24.77;;;3.50;99.90;;;;;;5067674;28;20200;-76
2024/02/28 07:50:41;;;;;;;57.13;26.65;;;3.40;99.90;;;;;;5062526;28;20716;-75
2024/02/28 07:53:08;;;;;;;46.95;24.08;;;3.30;99.90;;;;;;5072968;28;20227;-76
2024/02/28 07:55:35;;;;;;;56.67;27.15;;;3.20;99.90;;;;;;5064381;28;20200;-75
2024/02/28 07:58:02;;;;;;;54.22;28.20;;;3.30;99.90;;;;;;5064515;28;20207;-76
2024/02/28 08:00:29;;;;;;;50.00;26.98;;;3.40;99.90;;;;;;5072869;28;20270;-75
2024/02/28 08:02:56;;;;;;;41.47;21.25;;;3.70;99.90;;;;;;5067165;28;20635;-74
2024/02/28 08:05:23;;;;;;;44.90;25.90;;;3.90;99.90;;;;;;5058616;28;20252;-72
2024/02/28 08:07:51;;;;;;;38.17;22.77;;;3.90;99.90;;;;;;5054224;28;20199;-77
2024/02/28 08:10:19;;;;;;;42.30;23.65;;;4.00;99.90;;;;;;5061780;28;20703;-74
2024/02/28 08:12:46;;;;;;;43.17;23.42;;;4.10;99.90;;;;;;5063196;28;20314;-73
2024/02/28 08:15:13;;;;;;;39.83;20.35;;;4.10;99.90;;;;;;5056822;28;20567;-75
2024/02/28 08:17:40;;;;;;;37.63;20.00;;;4.30;99.90;;;;;;5054476;28;20200;-77
2024/02/28 08:20:09;;;;;;;36.65;21.80;;;4.30;99.90;;;;;;5066616;28;20227;-73
2024/02/28 08:22:36;;;;;;;36.70;21.48;;;4.60;99.90;;;;;;5061219;28;20286;-72
2024/02/28 08:25:05;;;;;;;34.25;19.52;;;4.80;99.90;;;;;;5060646;28;20200;-74
2024/02/28 08:27:34;;;;;;;33.25;19.45;;;5.10;99.90;;;;;;5057343;28;20207;-73
2024/02/28 08:30:01;;;;;;;32.90;19.23;;;5.30;99.90;;;;;;5062929;28;20220;-76
2024/02/28 08:32:28;;;;;;;33.58;18.17;;;5.40;99.90;;;;;;5060893;28;20196;-75
2024/02/28 08:34:56;;;;;;;30.63;19.13;;;5.30;99.90;;;;;;5065442;28;20657;-76
2024/02/28 08:37:23;;;;;;;39.35;22.08;;;5.20;99.90;;;;;;5057491;28;20246;-75
2024/02/28 08:39:50;;;;;;;31.40;19.95;;;4.90;99.90;;;;;;5065891;28;20223;-75
2024/02/28 08:42:18;;;;;;;35.63;19.98;;;5.00;99.90;;;;;;5056809;28;20247;-75
2024/02/28 08:44:47;;;;;;;33.85;19.33;;;4.70;99.90;;;;;;5063402;28;20658;-73
2024/02/28 08:47:14;;;;;;;32.47;19.60;;;4.70;99.90;;;;;;5064047;28;20203;-75
2024/02/28 08:49:41;;;;;;;37.10;20.08;;;4.50;99.90;;;;;;5068492;28;20199;-74
2024/02/28 08:52:09;;;;;;;34.70;20.13;;;4.60;99.90;;;;;;5066973;28;20230;-78
2024/02/28 08:54:36;;;;;;;30.25;19.95;;;4.70;99.90;;;;;;5069160;28;20220;-73
2024/02/28 08:57:04;;;;;;;35.40;21.60;;;4.60;99.90;;;;;;5066042;28;20233;-74
2024/02/28 08:59:32;;;;;;;26.48;18.08;;;4.40;99.90;;;;;;5068500;28;20220;-74
2024/02/28 09:01:59;;;;;;;34.97;18.23;;;4.50;99.90;;;;;;5071893;28;20680;-75
2024/02/28 09:04:26;;;;;;;31.17;17.80;;;4.60;99.90;;;;;;5073328;28;20246;-74
2024/02/28 09:06:54;;;;;;;31.73;18.85;;;4.80;99.90;;;;;;5078420;28;20207;-74
2024/02/28 09:09:21;;;;;;;29.35;17.95;;;4.80;99.90;;;;;;5059779;28;20228;-76
2024/02/28 09:11:48;;;;;;;33.70;19.77;;;5.00;99.90;;;;;;5069818;28;20240;-74
2024/02/28 09:14:15;;;;;;;30.17;19.83;;;5.10;99.90;;;;;;5062114;28;20249;-75
2024/02/28 09:16:44;;;;;;;26.65;16.38;;;5.20;99.90;;;;;;5060523;28;20207;-74
2024/02/28 09:19:11;;;;;;;33.55;19.35;;;5.40;99.90;;;;;;5057665;28;20232;-72
2024/02/28 09:21:38;;;;;;;27.95;16.75;;;5.40;99.90;;;;;;5064343;28;20204;-74
2024/02/28 09:24:06;;;;;;;30.45;18.48;;;5.70;99.90;;;;;;5067943;28;20238;-75
2024/02/28 09:26:33;;;;;;;30.55;17.08;;;5.90;99.90;;;;;;5067033;28;20250;-75
2024/02/28 09:29:00;;;;;;;24.75;16.08;;;5.90;99.90;;;;;;5070087;28;20572;-73
2024/02/28 09:31:27;;;;;;;24.73;16.60;;;6.30;99.90;;;;;;5071938;28;20208;-73
2024/02/28 09:33:58;;;;;;;26.92;16.33;;;6.70;99.90;;;;;;5080325;28;20250;-77
2024/02/28 09:36:25;;;;;;;27.25;16.77;;;7.00;99.90;;;;;;5087460;28;20303;-75
2024/02/28 09:38:52;;;;;;;25.58;16.10;;;7.30;99.90;;;;;;5073673;28;20224;-74
2024/02/28 09:41:19;;;;;;;22.02;14.70;;;7.10;99.90;;;;;;5062303;28;20266;-72
2024/02/28 09:43:47;;;;;;;29.30;16.27;;;7.20;99.90;;;;;;5060864;28;20269;-73
2024/02/28 09:46:15;;;;;;;27.73;18.60;;;7.30;99.90;;;;;;5059504;28;20250;-75
2024/02/28 09:48:42;;;;;;;30.40;17.45;;;7.30;99.90;;;;;;5068198;28;20233;-73
2024/02/28 09:51:12;;;;;;;31.80;18.20;;;7.10;99.90;;;;;;5075598;28;20227;-76
2024/02/28 09:53:40;;;;;;;29.00;17.85;;;7.10;99.90;;;;;;5066142;28;20626;-74
2024/02/28 09:56:08;;;;;;;31.25;18.27;;;7.10;99.90;;;;;;5058750;28;20282;-76
2024/02/28 09:58:37;;;;;;;29.27;18.35;;;6.80;99.90;;;;;;5063792;28;20250;-75
2024/02/28 10:01:09;;;;;;;37.55;18.60;;;6.70;99.90;;;;;;5068113;28;20209;-74
2024/02/28 10:03:37;;;;;;;34.28;19.83;;;6.60;99.90;;;;;;5073182;28;20264;-75
2024/02/28 10:06:05;;;;;;;37.13;19.90;;;6.20;99.90;;;;;;5070474;28;20674;-75
2024/02/28 10:08:34;;;;;;;35.28;21.52;;;6.00;99.90;;;;;;5067932;28;20571;-75
2024/02/28 10:11:02;;;;;;;35.03;20.98;;;5.90;99.90;;;;;;5069266;28;20599;-74
2024/02/28 10:13:30;;;;;;;36.25;20.55;;;6.00;99.90;;;;;;5063268;28;20227;-74
2024/02/28 10:15:57;;;;;;;35.40;18.70;;;6.20;99.90;;;;;;5062192;28;20215;-73
2024/02/28 10:18:24;;;;;;;32.30;19.27;;;6.20;99.90;;;;;;5061863;28;20249;-74
2024/02/28 10:20:51;;;;;;;31.80;20.25;;;6.20;99.90;;;;;;5062124;28;20208;-71
2024/02/28 10:23:18;;;;;;;35.90;19.83;;;6.10;99.90;;;;;;5059175;28;20273;-75
2024/02/28 10:25:48;;;;;;;41.38;22.42;;;6.30;99.90;;;;;;5056738;28;20200;-78
2024/02/28 10:28:16;;;;;;;37.85;21.27;;;6.30;99.90;;;;;;5070623;28;20654;-73
2024/02/28 10:30:45;;;;;;;32.35;19.92;;;6.50;99.90;;;;;;5062010;28;20620;-77
2024/02/28 10:33:13;;;;;;;35.15;21.88;;;6.30;99.90;;;;;;5059240;28;20288;-72
2024/02/28 10:35:42;;;;;;;32.72;19.35;;;6.50;99.90;;;;;;5063752;28;20231;-75
2024/02/28 10:38:11;;;;;;;34.38;20.33;;;6.60;99.90;;;;;;5061268;28;20199;-76
2024/02/28 10:40:40;;;;;;;36.45;21.60;;;6.60;99.90;;;;;;5059769;28;20215;-74
2024/02/28 10:43:10;;;;;;;29.38;19.23;;;6.50;99.90;;;;;;5054842;28;20224;-76
2024/02/28 10:45:39;;;;;;;36.67;21.20;;;6.60;99.90;;;;;;5054773;28;20278;-72
2024/02/28 10:48:07;;;;;;;35.60;19.17;;;6.80;99.90;;;;;;5054359;28;20207;-75
2024/02/28 10:50:35;;;;;;;37.53;20.80;;;6.90;99.90;;;;;;5056976;28;20583;-76
2024/02/28 10:53:05;;;;;;;41.40;24.90;;;7.00;99.90;;;;;;5071229;28;20246;-72
2024/02/28 10:55:39;;;;;;;36.03;21.10;;;6.90;99.90;;;;;;5074427;28;20195;-73
2024/02/28 10:58:10;;;;;;;35.90;20.83;;;6.70;99.90;;;;;;5058410;28;20207;-75
2024/02/28 11:00:41;;;;;;;41.65;22.33;;;6.60;99.90;;;;;;5059833;28;20246;-76
2024/02/28 11:03:09;;;;;;;34.08;20.58;;;6.60;99.90;;;;;;5056243;28;20228;-73
2024/02/28 11:05:38;;;;;;;40.03;20.98;;;6.80;99.90;;;;;;5065508;28;20204;-72
2024/02/28 11:08:06;;;;;;;37.15;22.67;;;6.90;99.90;;;;;;5075208;28;20234;-74
2024/02/28 11:10:34;;;;;;;37.80;21.50;;;6.80;99.90;;;;;;5063971;28;20226;-75
2024/02/28 11:13:01;;;;;;;28.30;17.88;;;6.90;99.90;;;;;;5062047;28;20254;-71
2024/02/28 11:15:30;;;;;;;39.15;21.70;;;7.10;99.90;;;;;;5063396;28;20744;-74
2024/02/28 11:18:09;;;;;;;39.65;22.60;;;6.90;99.90;;;;;;5062947;28;20200;-75
2024/02/28 11:20:36;;;;;;;33.22;21.20;;;6.90;99.90;;;;;;5057825;28;20257;-77
2024/02/28 11:23:03;;;;;;;35.92;19.27;;;6.80;99.90;;;;;;5059291;28;20223;-75
2024/02/28 11:25:30;;;;;;;41.67;22.65;;;6.90;99.90;;;;;;5062882;28;20239;-74
2024/02/28 11:27:57;;;;;;;37.50;21.05;;;6.80;99.90;;;;;;5067667;28;20211;-76
2024/02/28 11:30:26;;;;;;;45.83;24.23;;;6.70;99.90;;;;;;5059880;28;20200;-72
2024/02/28 11:32:55;;;;;;;50.80;25.70;;;6.80;99.90;;;;;;5060362;28;20647;-74
2024/02/28 11:35:22;;;;;;;46.40;25.60;;;6.70;99.90;;;;;;5059966;28;20204;-74
2024/02/28 11:37:50;;;;;;;41.08;22.55;;;6.80;99.90;;;;;;5071473;28;20199;-77
2024/02/28 11:40:17;;;;;;;39.35;21.45;;;7.00;99.90;;;;;;5056861;28;20694;-73
2024/02/28 11:42:45;;;;;;;35.80;22.35;;;7.30;99.90;;;;;;5061068;28;20585;-73
2024/02/28 11:45:12;;;;;;;54.60;23.77;;;7.50;99.90;;;;;;5062424;28;20208;-75
2024/02/28 11:47:40;;;;;;;47.03;25.70;;;7.50;99.90;;;;;;5064098;28;20203;-74
2024/02/28 11:50:09;;;;;;;41.65;23.58;;;7.60;99.90;;;;;;5065164;28;20192;-74
2024/02/28 11:52:36;;;;;;;47.95;23.42;;;7.90;99.90;;;;;;5056955;28;20228;-74
2024/02/28 11:55:03;;;;;;;45.13;23.13;;;7.80;99.90;;;;;;5065115;28;20227;-73
2024/02/28 11:57:33;;;;;;;47.33;24.70;;;7.80;99.90;;;;;;5067351;28;20200;-74
2024/02/28 12:00:05;;;;;;;46.22;23.85;;;7.70;99.90;;;;;;5061802;28;20319;-74
2024/02/28 12:02:32;;;;;;;50.45;25.92;;;7.70;99.90;;;;;;5054421;28;20239;-76
2024/02/28 12:05:02;;;;;;;52.53;27.55;;;7.70;99.90;;;;;;5061088;28;20261;-75
2024/02/28 12:07:30;;;;;;;48.22;25.15;;;7.50;99.90;;;;;;5061494;28;20199;-72
2024/02/28 12:09:58;;;;;;;44.83;24.48;;;7.60;99.90;;;;;;5072386;28;20225;-75
2024/02/28 12:12:26;;;;;;;42.72;25.48;;;7.60;99.90;;;;;;5069047;28;20207;-73
2024/02/28 12:14:59;;;;;;;42.10;23.70;;;7.70;99.90;;;;;;5064431;28;20253;-72
2024/02/28 12:17:26;;;;;;;56.10;24.20;;;7.80;99.90;;;;;;5076155;28;20738;-76
2024/02/28 12:19:54;;;;;;;44.28;24.10;;;7.80;99.90;;;;;;5074416;28;20283;-73
2024/02/28 12:22:22;;;;;;;50.08;23.85;;;7.70;99.90;;;;;;5083976;28;20267;-72
2024/02/28 12:24:51;;;;;;;41.50;24.35;;;7.60;99.90;;;;;;5072062;28;20204;-75
2024/02/28 12:27:18;;;;;;;51.13;24.08;;;7.70;99.90;;;;;;5071149;28;20199;-75
2024/02/28 12:29:45;;;;;;;44.20;24.00;;;7.60;99.90;;;;;;5058415;28;20217;-72
2024/02/28 12:32:12;;;;;;;56.03;27.50;;;7.80;99.90;;;;;;5065835;28;20215;-75
2024/02/28 12:34:45;;;;;;;49.45;26.55;;;7.50;99.90;;;;;;5067807;28;20242;-76
2024/02/28 12:37:12;;;;;;;53.13;25.75;;;7.50;99.90;;;;;;5068406;28;20686;-76